sensor_id;sensor_type;location;lat;lon;timestamp;pressure;altitude;pressure_sealevel;temperature;humidity
51067;BME280;37112;45.892;-123.962;2023-07-29T00:00:20;101834.54;;;19.75;63.62
51067;BME280;37112;45.892;-123.962;2023-07-29T00:02:55;101829.24;;;19.90;63.48
51067;BME280;37112;45.892;-123.962;2023-07-29T00:05:10;101833.09;;;19.99;63.34
51067;BME280;37112;45.892;-123.962;2023-07-29T00:07:24;101830.91;;;20.03;62.91
51067;BME280;37112;45.892;-123.962;2023-07-29T00:09:38;101826.23;;;20.08;62.39
51067;BME280;37112;45.892;-123.962;2023-07-29T00:11:51;101827.41;;;20.05;61.99
51067;BME280;37112;45.892;-123.962;2023-07-29T00:14:05;101824.92;;;20.00;62.64
51067;BME280;37112;45.892;-123.962;2023-07-29T00:16:18;101826.55;;;20.04;62.74
51067;BME280;37112;45.892;-123.962;2023-07-29T00:18:35;101817.64;;;20.05;62.58
51067;BME280;37112;45.892;-123.962;2023-07-29T00:20:49;101820.11;;;20.11;63.00
51067;BME280;37112;45.892;-123.962;2023-07-29T00:23:02;101821.36;;;20.11;62.28
51067;BME280;37112;45.892;-123.962;2023-07-29T00:25:15;101820.88;;;20.05;62.31
51067;BME280;37112;45.892;-123.962;2023-07-29T00:27:28;101821.32;;;19.96;62.23
51067;BME280;37112;45.892;-123.962;2023-07-29T00:29:42;101816.63;;;19.90;62.71
51067;BME280;37112;45.892;-123.962;2023-07-29T00:31:56;101820.16;;;19.87;63.06
51067;BME280;37112;45.892;-123.962;2023-07-29T00:34:10;101818.31;;;19.84;63.03
51067;BME280;37112;45.892;-123.962;2023-07-29T00:36:28;101818.96;;;19.76;63.24
51067;BME280;37112;45.892;-123.962;2023-07-29T00:38:41;101817.59;;;19.73;63.39
51067;BME280;37112;45.892;-123.962;2023-07-29T00:40:54;101817.57;;;19.71;63.12
51067;BME280;37112;45.892;-123.962;2023-07-29T00:43:11;101814.61;;;19.64;63.54
51067;BME280;37112;45.892;-123.962;2023-07-29T00:45:26;101816.23;;;19.62;63.81
51067;BME280;37112;45.892;-123.962;2023-07-29T00:47:40;101815.48;;;19.56;63.68
51067;BME280;37112;45.892;-123.962;2023-07-29T00:49:55;101813.20;;;19.49;63.96
51067;BME280;37112;45.892;-123.962;2023-07-29T00:52:09;101809.88;;;19.42;64.15
51067;BME280;37112;45.892;-123.962;2023-07-29T00:54:26;101805.48;;;19.36;64.51
51067;BME280;37112;45.892;-123.962;2023-07-29T00:56:40;101807.17;;;19.40;64.68
51067;BME280;37112;45.892;-123.962;2023-07-29T00:58:55;101806.81;;;19.42;64.77
51067;BME280;37112;45.892;-123.962;2023-07-29T01:01:15;101807.02;;;19.48;64.76
51067;BME280;37112;45.892;-123.962;2023-07-29T01:03:30;101810.02;;;19.48;64.80
51067;BME280;37112;45.892;-123.962;2023-07-29T01:05:53;101810.72;;;19.51;64.87
51067;BME280;37112;45.892;-123.962;2023-07-29T01:08:15;101808.02;;;19.53;64.97
51067;BME280;37112;45.892;-123.962;2023-07-29T01:10:42;101806.09;;;19.54;65.00
51067;BME280;37112;45.892;-123.962;2023-07-29T01:13:04;101810.73;;;19.49;64.83
51067;BME280;37112;45.892;-123.962;2023-07-29T01:15:23;101809.36;;;19.42;64.75
51067;BME280;37112;45.892;-123.962;2023-07-29T01:17:43;101809.17;;;19.35;64.97
51067;BME280;37112;45.892;-123.962;2023-07-29T01:20:03;101809.72;;;19.32;65.27
51067;BME280;37112;45.892;-123.962;2023-07-29T01:22:21;101803.52;;;19.31;65.57
51067;BME280;37112;45.892;-123.962;2023-07-29T01:24:37;101805.98;;;19.33;65.75
51067;BME280;37112;45.892;-123.962;2023-07-29T01:26:51;101802.94;;;19.39;65.95
51067;BME280;37112;45.892;-123.962;2023-07-29T01:29:05;101804.50;;;19.46;65.76
51067;BME280;37112;45.892;-123.962;2023-07-29T01:31:25;101801.52;;;19.49;65.47
51067;BME280;37112;45.892;-123.962;2023-07-29T01:33:39;101800.11;;;19.51;65.33
51067;BME280;37112;45.892;-123.962;2023-07-29T01:35:55;101800.56;;;19.41;64.98
51067;BME280;37112;45.892;-123.962;2023-07-29T01:38:13;101799.23;;;19.38;65.28
51067;BME280;37112;45.892;-123.962;2023-07-29T01:40:29;101798.84;;;19.36;65.31
51067;BME280;37112;45.892;-123.962;2023-07-29T01:42:43;101800.45;;;19.34;65.36
51067;BME280;37112;45.892;-123.962;2023-07-29T01:44:57;101799.20;;;19.32;65.37
51067;BME280;37112;45.892;-123.962;2023-07-29T01:47:11;101799.77;;;19.32;65.14
51067;BME280;37112;45.892;-123.962;2023-07-29T01:49:25;101801.84;;;19.31;65.49
51067;BME280;37112;45.892;-123.962;2023-07-29T01:51:43;101802.47;;;19.34;65.26
51067;BME280;37112;45.892;-123.962;2023-07-29T01:53:57;101804.41;;;19.36;65.28
51067;BME280;37112;45.892;-123.962;2023-07-29T01:56:12;101801.34;;;19.36;64.97
51067;BME280;37112;45.892;-123.962;2023-07-29T01:58:33;101801.48;;;19.33;64.99
51067;BME280;37112;45.892;-123.962;2023-07-29T02:00:47;101798.46;;;19.35;65.19
51067;BME280;37112;45.892;-123.962;2023-07-29T02:03:00;101795.83;;;19.36;65.09
51067;BME280;37112;45.892;-123.962;2023-07-29T02:05:14;101796.95;;;19.33;65.02
51067;BME280;37112;45.892;-123.962;2023-07-29T02:07:28;101796.30;;;19.35;65.10
51067;BME280;37112;45.892;-123.962;2023-07-29T02:09:42;101797.41;;;19.34;65.19
51067;BME280;37112;45.892;-123.962;2023-07-29T02:11:55;101796.84;;;19.34;64.81
51067;BME280;37112;45.892;-123.962;2023-07-29T02:14:20;101797.20;;;19.26;64.58
51067;BME280;37112;45.892;-123.962;2023-07-29T02:16:34;101798.52;;;19.24;64.95
51067;BME280;37112;45.892;-123.962;2023-07-29T02:18:49;101800.38;;;19.25;64.86
51067;BME280;37112;45.892;-123.962;2023-07-29T02:21:08;101802.60;;;19.26;64.72
51067;BME280;37112;45.892;-123.962;2023-07-29T02:23:22;101803.48;;;19.21;64.81
51067;BME280;37112;45.892;-123.962;2023-07-29T02:25:37;101807.98;;;19.10;65.22
51067;BME280;37112;45.892;-123.962;2023-07-29T02:27:53;101810.67;;;19.04;65.20
51067;BME280;37112;45.892;-123.962;2023-07-29T02:30:09;101808.41;;;19.01;65.34
51067;BME280;37112;45.892;-123.962;2023-07-29T02:32:23;101805.70;;;18.97;65.48
51067;BME280;37112;45.892;-123.962;2023-07-29T02:34:36;101808.09;;;18.92;65.46
51067;BME280;37112;45.892;-123.962;2023-07-29T02:36:49;101806.64;;;18.79;65.48
51067;BME280;37112;45.892;-123.962;2023-07-29T02:39:02;101804.98;;;18.67;65.77
51067;BME280;37112;45.892;-123.962;2023-07-29T02:41:16;101802.89;;;18.62;66.17
51067;BME280;37112;45.892;-123.962;2023-07-29T02:43:30;101805.89;;;18.58;66.27
51067;BME280;37112;45.892;-123.962;2023-07-29T02:45:43;101812.42;;;18.55;66.45
51067;BME280;37112;45.892;-123.962;2023-07-29T02:47:57;101813.58;;;18.53;66.53
51067;BME280;37112;45.892;-123.962;2023-07-29T02:50:11;101809.30;;;18.50;66.62
51067;BME280;37112;45.892;-123.962;2023-07-29T02:52:24;101807.34;;;18.50;66.63
51067;BME280;37112;45.892;-123.962;2023-07-29T02:54:38;101811.53;;;18.53;66.94
51067;BME280;37112;45.892;-123.962;2023-07-29T02:56:52;101809.56;;;18.55;66.85
51067;BME280;37112;45.892;-123.962;2023-07-29T02:59:06;101812.41;;;18.53;66.69
51067;BME280;37112;45.892;-123.962;2023-07-29T03:01:20;101814.09;;;18.47;66.56
51067;BME280;37112;45.892;-123.962;2023-07-29T03:03:33;101812.80;;;18.45;66.91
51067;BME280;37112;45.892;-123.962;2023-07-29T03:05:46;101807.22;;;18.45;66.91
51067;BME280;37112;45.892;-123.962;2023-07-29T03:08:00;101808.48;;;18.42;66.96
51067;BME280;37112;45.892;-123.962;2023-07-29T03:10:17;101812.77;;;18.41;66.92
51067;BME280;37112;45.892;-123.962;2023-07-29T03:12:30;101811.41;;;18.40;66.86
51067;BME280;37112;45.892;-123.962;2023-07-29T03:14:52;101814.11;;;18.33;66.91
51067;BME280;37112;45.892;-123.962;2023-07-29T03:17:07;101814.84;;;18.29;67.09
51067;BME280;37112;45.892;-123.962;2023-07-29T03:19:21;101815.73;;;18.24;67.03
51067;BME280;37112;45.892;-123.962;2023-07-29T03:21:34;101815.59;;;18.20;67.27
51067;BME280;37112;45.892;-123.962;2023-07-29T03:23:48;101816.98;;;18.14;67.32
51067;BME280;37112;45.892;-123.962;2023-07-29T03:26:03;101821.05;;;18.08;67.41
51067;BME280;37112;45.892;-123.962;2023-07-29T03:28:21;101819.23;;;18.06;67.62
51067;BME280;37112;45.892;-123.962;2023-07-29T03:30:34;101817.71;;;18.02;67.72
51067;BME280;37112;45.892;-123.962;2023-07-29T03:32:50;101818.48;;;18.00;67.67
51067;BME280;37112;45.892;-123.962;2023-07-29T03:35:04;101813.77;;;17.98;67.91
51067;BME280;37112;45.892;-123.962;2023-07-29T03:37:18;101820.10;;;17.97;68.10
51067;BME280;37112;45.892;-123.962;2023-07-29T03:39:31;101817.98;;;17.93;67.97
51067;BME280;37112;45.892;-123.962;2023-07-29T03:41:44;101819.64;;;17.90;68.12
51067;BME280;37112;45.892;-123.962;2023-07-29T03:43:58;101821.72;;;17.89;68.27
51067;BME280;37112;45.892;-123.962;2023-07-29T03:46:11;101820.52;;;17.88;68.42
51067;BME280;37112;45.892;-123.962;2023-07-29T03:48:29;101820.80;;;17.85;68.36
51067;BME280;37112;45.892;-123.962;2023-07-29T03:50:43;101819.90;;;17.82;68.43
51067;BME280;37112;45.892;-123.962;2023-07-29T03:52:56;101820.21;;;17.78;68.52
51067;BME280;37112;45.892;-123.962;2023-07-29T03:55:12;101821.45;;;17.76;68.62
51067;BME280;37112;45.892;-123.962;2023-07-29T03:57:25;101821.98;;;17.74;68.60
51067;BME280;37112;45.892;-123.962;2023-07-29T03:59:39;101822.98;;;17.73;68.72
51067;BME280;37112;45.892;-123.962;2023-07-29T04:01:52;101821.39;;;17.70;68.66
51067;BME280;37112;45.892;-123.962;2023-07-29T04:04:06;101822.23;;;17.69;68.78
51067;BME280;37112;45.892;-123.962;2023-07-29T04:06:20;101821.05;;;17.68;68.99
51067;BME280;37112;45.892;-123.962;2023-07-29T04:08:34;101824.46;;;17.68;68.94
51067;BME280;37112;45.892;-123.962;2023-07-29T04:10:48;101828.34;;;17.66;69.06
51067;BME280;37112;45.892;-123.962;2023-07-29T04:13:01;101830.39;;;17.63;68.89
51067;BME280;37112;45.892;-123.962;2023-07-29T04:15:15;101831.45;;;17.59;68.86
51067;BME280;37112;45.892;-123.962;2023-07-29T04:17:29;101832.65;;;17.55;68.97
51067;BME280;37112;45.892;-123.962;2023-07-29T04:19:42;101834.25;;;17.53;69.16
51067;BME280;37112;45.892;-123.962;2023-07-29T04:21:56;101839.04;;;17.51;69.19
51067;BME280;37112;45.892;-123.962;2023-07-29T04:24:10;101835.70;;;17.48;69.16
51067;BME280;37112;45.892;-123.962;2023-07-29T04:26:23;101836.21;;;17.46;69.24
51067;BME280;37112;45.892;-123.962;2023-07-29T04:28:36;101839.69;;;17.43;69.20
51067;BME280;37112;45.892;-123.962;2023-07-29T04:30:50;101841.66;;;17.41;69.26
51067;BME280;37112;45.892;-123.962;2023-07-29T04:33:03;101845.09;;;17.39;69.28
51067;BME280;37112;45.892;-123.962;2023-07-29T04:35:20;101844.08;;;17.35;69.26
51067;BME280;37112;45.892;-123.962;2023-07-29T04:37:34;101851.33;;;17.30;69.22
51067;BME280;37112;45.892;-123.962;2023-07-29T04:39:48;101852.48;;;17.24;69.18
51067;BME280;37112;45.892;-123.962;2023-07-29T04:42:01;101854.40;;;17.21;69.39
51067;BME280;37112;45.892;-123.962;2023-07-29T04:44:15;101852.83;;;17.17;69.57
51067;BME280;37112;45.892;-123.962;2023-07-29T04:46:30;101851.83;;;17.14;69.76
51067;BME280;37112;45.892;-123.962;2023-07-29T04:48:45;101855.52;;;17.13;69.90
51067;BME280;37112;45.892;-123.962;2023-07-29T04:50:59;101857.02;;;17.12;69.98
51067;BME280;37112;45.892;-123.962;2023-07-29T04:53:12;101855.23;;;17.10;69.96
51067;BME280;37112;45.892;-123.962;2023-07-29T04:55:26;101858.20;;;17.08;70.07
51067;BME280;37112;45.892;-123.962;2023-07-29T04:57:39;101859.98;;;17.07;70.16
51067;BME280;37112;45.892;-123.962;2023-07-29T04:59:53;101861.86;;;17.05;70.17
51067;BME280;37112;45.892;-123.962;2023-07-29T05:02:07;101862.09;;;17.05;70.42
51067;BME280;37112;45.892;-123.962;2023-07-29T05:04:21;101858.51;;;17.02;70.31
51067;BME280;37112;45.892;-123.962;2023-07-29T05:06:35;101855.27;;;17.00;70.25
51067;BME280;37112;45.892;-123.962;2023-07-29T05:08:48;101856.84;;;16.95;70.34
51067;BME280;37112;45.892;-123.962;2023-07-29T05:11:01;101856.55;;;16.95;70.38
51067;BME280;37112;45.892;-123.962;2023-07-29T05:13:15;101857.67;;;16.92;70.42
51067;BME280;37112;45.892;-123.962;2023-07-29T05:15:28;101857.11;;;16.90;70.55
51067;BME280;37112;45.892;-123.962;2023-07-29T05:17:43;101859.36;;;16.89;70.64
51067;BME280;37112;45.892;-123.962;2023-07-29T05:19:56;101857.45;;;16.88;70.74
51067;BME280;37112;45.892;-123.962;2023-07-29T05:22:10;101859.45;;;16.85;70.87
51067;BME280;37112;45.892;-123.962;2023-07-29T05:24:27;101859.33;;;16.82;70.94
51067;BME280;37112;45.892;-123.962;2023-07-29T05:26:42;101857.93;;;16.79;70.78
51067;BME280;37112;45.892;-123.962;2023-07-29T05:28:55;101859.10;;;16.75;70.94
51067;BME280;37112;45.892;-123.962;2023-07-29T05:31:09;101857.48;;;16.73;71.00
51067;BME280;37112;45.892;-123.962;2023-07-29T05:33:22;101854.64;;;16.70;71.20
51067;BME280;37112;45.892;-123.962;2023-07-29T05:35:36;101853.23;;;16.67;71.24
51067;BME280;37112;45.892;-123.962;2023-07-29T05:37:51;101850.42;;;16.64;71.31
51067;BME280;37112;45.892;-123.962;2023-07-29T05:40:06;101852.41;;;16.59;71.30
51067;BME280;37112;45.892;-123.962;2023-07-29T05:42:20;101852.08;;;16.54;71.27
51067;BME280;37112;45.892;-123.962;2023-07-29T05:44:37;101853.90;;;16.51;71.42
51067;BME280;37112;45.892;-123.962;2023-07-29T05:46:50;101854.88;;;16.48;71.45
51067;BME280;37112;45.892;-123.962;2023-07-29T05:49:04;101855.34;;;16.44;71.55
51067;BME280;37112;45.892;-123.962;2023-07-29T05:51:18;101854.60;;;16.39;71.65
51067;BME280;37112;45.892;-123.962;2023-07-29T05:53:38;101852.46;;;16.36;71.90
51067;BME280;37112;45.892;-123.962;2023-07-29T05:55:52;101851.38;;;16.35;72.03
51067;BME280;37112;45.892;-123.962;2023-07-29T05:58:06;101855.06;;;16.33;72.27
51067;BME280;37112;45.892;-123.962;2023-07-29T06:00:22;101853.64;;;16.31;72.15
51067;BME280;37112;45.892;-123.962;2023-07-29T06:02:36;101849.63;;;16.27;72.24
51067;BME280;37112;45.892;-123.962;2023-07-29T06:04:51;101849.95;;;16.25;72.36
51067;BME280;37112;45.892;-123.962;2023-07-29T06:07:05;101850.14;;;16.20;72.30
51067;BME280;37112;45.892;-123.962;2023-07-29T06:09:19;101851.22;;;16.15;72.30
51067;BME280;37112;45.892;-123.962;2023-07-29T06:11:33;101852.89;;;16.09;72.34
51067;BME280;37112;45.892;-123.962;2023-07-29T06:13:47;101855.14;;;16.05;72.58
51067;BME280;37112;45.892;-123.962;2023-07-29T06:16:01;101857.12;;;16.03;72.79
51067;BME280;37112;45.892;-123.962;2023-07-29T06:18:16;101854.31;;;15.99;73.01
51067;BME280;37112;45.892;-123.962;2023-07-29T06:20:30;101855.98;;;15.96;73.05
51067;BME280;37112;45.892;-123.962;2023-07-29T06:22:45;101856.18;;;15.93;73.15
51067;BME280;37112;45.892;-123.962;2023-07-29T06:24:59;101858.63;;;15.89;73.15
51067;BME280;37112;45.892;-123.962;2023-07-29T06:27:12;101859.02;;;15.83;73.26
51067;BME280;37112;45.892;-123.962;2023-07-29T06:29:25;101856.23;;;15.80;73.48
51067;BME280;37112;45.892;-123.962;2023-07-29T06:31:39;101853.46;;;15.76;73.56
51067;BME280;37112;45.892;-123.962;2023-07-29T06:33:54;101859.50;;;15.72;73.62
51067;BME280;37112;45.892;-123.962;2023-07-29T06:36:07;101858.35;;;15.68;73.69
51067;BME280;37112;45.892;-123.962;2023-07-29T06:38:21;101855.17;;;15.65;74.00
51067;BME280;37112;45.892;-123.962;2023-07-29T06:40:35;101859.56;;;15.64;74.16
51067;BME280;37112;45.892;-123.962;2023-07-29T06:42:48;101862.00;;;15.62;74.26
51067;BME280;37112;45.892;-123.962;2023-07-29T06:45:01;101861.92;;;15.60;74.40
51067;BME280;37112;45.892;-123.962;2023-07-29T06:47:14;101864.73;;;15.58;74.63
51067;BME280;37112;45.892;-123.962;2023-07-29T06:49:28;101862.73;;;15.56;74.65
51067;BME280;37112;45.892;-123.962;2023-07-29T06:51:41;101860.23;;;15.53;74.77
51067;BME280;37112;45.892;-123.962;2023-07-29T06:53:55;101860.23;;;15.51;74.79
51067;BME280;37112;45.892;-123.962;2023-07-29T06:56:10;101859.45;;;15.47;74.80
51067;BME280;37112;45.892;-123.962;2023-07-29T06:58:23;101856.64;;;15.44;74.97
51067;BME280;37112;45.892;-123.962;2023-07-29T07:00:36;101857.72;;;15.41;74.90
51067;BME280;37112;45.892;-123.962;2023-07-29T07:02:50;101854.92;;;15.38;74.98
51067;BME280;37112;45.892;-123.962;2023-07-29T07:05:04;101855.95;;;15.36;75.12
51067;BME280;37112;45.892;-123.962;2023-07-29T07:07:21;101858.16;;;15.32;75.19
51067;BME280;37112;45.892;-123.962;2023-07-29T07:09:36;101854.34;;;15.28;75.28
51067;BME280;37112;45.892;-123.962;2023-07-29T07:11:49;101855.58;;;15.25;75.44
51067;BME280;37112;45.892;-123.962;2023-07-29T07:14:03;101851.54;;;15.22;75.38
51067;BME280;37112;45.892;-123.962;2023-07-29T07:16:17;101853.73;;;15.19;75.49
51067;BME280;37112;45.892;-123.962;2023-07-29T07:18:31;101853.40;;;15.15;75.53
51067;BME280;37112;45.892;-123.962;2023-07-29T07:20:47;101853.27;;;15.12;75.63
51067;BME280;37112;45.892;-123.962;2023-07-29T07:23:01;101855.77;;;15.10;75.75
51067;BME280;37112;45.892;-123.962;2023-07-29T07:25:16;101857.39;;;15.07;75.81
51067;BME280;37112;45.892;-123.962;2023-07-29T07:27:32;101857.04;;;15.04;75.90
51067;BME280;37112;45.892;-123.962;2023-07-29T07:29:46;101856.50;;;15.02;76.00
51067;BME280;37112;45.892;-123.962;2023-07-29T07:32:00;101859.54;;;14.99;76.02
51067;BME280;37112;45.892;-123.962;2023-07-29T07:34:13;101859.60;;;14.96;76.19
51067;BME280;37112;45.892;-123.962;2023-07-29T07:36:27;101857.84;;;14.92;76.20
51067;BME280;37112;45.892;-123.962;2023-07-29T07:38:41;101858.58;;;14.90;76.32
51067;BME280;37112;45.892;-123.962;2023-07-29T07:40:58;101858.59;;;14.87;76.31
51067;BME280;37112;45.892;-123.962;2023-07-29T07:43:12;101857.83;;;14.85;76.42
51067;BME280;37112;45.892;-123.962;2023-07-29T07:45:25;101859.33;;;14.84;76.49
51067;BME280;37112;45.892;-123.962;2023-07-29T07:47:38;101864.70;;;14.81;76.48
51067;BME280;37112;45.892;-123.962;2023-07-29T07:49:52;101865.04;;;14.79;76.62
51067;BME280;37112;45.892;-123.962;2023-07-29T07:52:06;101863.08;;;14.76;76.69
51067;BME280;37112;45.892;-123.962;2023-07-29T07:54:19;101866.63;;;14.73;76.76
51067;BME280;37112;45.892;-123.962;2023-07-29T07:56:34;101867.52;;;14.70;76.82
51067;BME280;37112;45.892;-123.962;2023-07-29T07:58:48;101867.19;;;14.67;76.82
51067;BME280;37112;45.892;-123.962;2023-07-29T08:01:06;101865.11;;;14.64;77.00
51067;BME280;37112;45.892;-123.962;2023-07-29T08:03:19;101864.24;;;14.61;77.10
51067;BME280;37112;45.892;-123.962;2023-07-29T08:05:33;101861.14;;;14.59;77.32
51067;BME280;37112;45.892;-123.962;2023-07-29T08:07:48;101863.79;;;14.57;77.31
51067;BME280;37112;45.892;-123.962;2023-07-29T08:10:03;101858.88;;;14.56;77.42
51067;BME280;37112;45.892;-123.962;2023-07-29T08:12:17;101857.70;;;14.54;77.57
51067;BME280;37112;45.892;-123.962;2023-07-29T08:14:30;101857.67;;;14.52;77.64
51067;BME280;37112;45.892;-123.962;2023-07-29T08:16:43;101859.16;;;14.52;77.79
51067;BME280;37112;45.892;-123.962;2023-07-29T08:18:57;101857.39;;;14.51;77.91
51067;BME280;37112;45.892;-123.962;2023-07-29T08:21:10;101857.20;;;14.52;78.06
51067;BME280;37112;45.892;-123.962;2023-07-29T08:23:23;101861.30;;;14.52;78.08
51067;BME280;37112;45.892;-123.962;2023-07-29T08:25:36;101862.71;;;14.52;78.17
51067;BME280;37112;45.892;-123.962;2023-07-29T08:27:50;101862.01;;;14.52;78.14
51067;BME280;37112;45.892;-123.962;2023-07-29T08:30:05;101866.86;;;14.51;78.15
51067;BME280;37112;45.892;-123.962;2023-07-29T08:32:19;101870.17;;;14.50;78.13
51067;BME280;37112;45.892;-123.962;2023-07-29T08:34:32;101867.40;;;14.48;78.14
51067;BME280;37112;45.892;-123.962;2023-07-29T08:36:46;101865.17;;;14.47;78.23
51067;BME280;37112;45.892;-123.962;2023-07-29T08:39:03;101869.36;;;14.45;78.24
51067;BME280;37112;45.892;-123.962;2023-07-29T08:41:21;101870.45;;;14.45;78.39
51067;BME280;37112;45.892;-123.962;2023-07-29T08:43:41;101868.46;;;14.45;78.63
51067;BME280;37112;45.892;-123.962;2023-07-29T08:45:56;101870.95;;;14.46;78.74
51067;BME280;37112;45.892;-123.962;2023-07-29T08:48:13;101873.08;;;14.46;78.77
51067;BME280;37112;45.892;-123.962;2023-07-29T08:50:28;101869.83;;;14.46;79.06
51067;BME280;37112;45.892;-123.962;2023-07-29T08:52:43;101867.96;;;14.48;79.24
51067;BME280;37112;45.892;-123.962;2023-07-29T08:54:57;101868.17;;;14.50;79.40
51067;BME280;37112;45.892;-123.962;2023-07-29T08:57:12;101872.73;;;14.52;79.37
51067;BME280;37112;45.892;-123.962;2023-07-29T08:59:28;101868.35;;;14.53;79.37
51067;BME280;37112;45.892;-123.962;2023-07-29T09:01:43;101869.04;;;14.53;79.44
51067;BME280;37112;45.892;-123.962;2023-07-29T09:03:57;101870.17;;;14.55;79.47
51067;BME280;37112;45.892;-123.962;2023-07-29T09:06:12;101868.94;;;14.55;79.42
51067;BME280;37112;45.892;-123.962;2023-07-29T09:08:27;101868.12;;;14.54;79.48
51067;BME280;37112;45.892;-123.962;2023-07-29T09:10:43;101870.84;;;14.53;79.53
51067;BME280;37112;45.892;-123.962;2023-07-29T09:12:57;101869.14;;;14.52;79.47
51067;BME280;37112;45.892;-123.962;2023-07-29T09:15:12;101872.02;;;14.49;79.36
51067;BME280;37112;45.892;-123.962;2023-07-29T09:17:26;101871.98;;;14.46;79.41
51067;BME280;37112;45.892;-123.962;2023-07-29T09:19:40;101870.64;;;14.45;79.47
51067;BME280;37112;45.892;-123.962;2023-07-29T09:21:57;101872.31;;;14.44;79.49
51067;BME280;37112;45.892;-123.962;2023-07-29T09:24:12;101870.34;;;14.41;79.52
51067;BME280;37112;45.892;-123.962;2023-07-29T09:26:29;101869.17;;;14.37;79.51
51067;BME280;37112;45.892;-123.962;2023-07-29T09:29:00;101867.89;;;14.32;79.58
51067;BME280;37112;45.892;-123.962;2023-07-29T09:31:22;101868.58;;;14.30;79.65
51067;BME280;37112;45.892;-123.962;2023-07-29T09:33:37;101876.56;;;14.28;79.75
51067;BME280;37112;45.892;-123.962;2023-07-29T09:35:51;101873.52;;;14.26;79.74
51067;BME280;37112;45.892;-123.962;2023-07-29T09:38:06;101872.60;;;14.23;79.68
51067;BME280;37112;45.892;-123.962;2023-07-29T09:40:21;101872.17;;;14.21;79.79
51067;BME280;37112;45.892;-123.962;2023-07-29T09:42:36;101872.73;;;14.18;79.78
51067;BME280;37112;45.892;-123.962;2023-07-29T09:44:50;101873.55;;;14.16;79.75
51067;BME280;37112;45.892;-123.962;2023-07-29T09:47:04;101874.05;;;14.14;79.81
51067;BME280;37112;45.892;-123.962;2023-07-29T09:49:18;101873.08;;;14.13;79.84
51067;BME280;37112;45.892;-123.962;2023-07-29T09:51:32;101875.23;;;14.10;79.84
51067;BME280;37112;45.892;-123.962;2023-07-29T09:53:51;101873.51;;;14.09;79.96
51067;BME280;37112;45.892;-123.962;2023-07-29T09:56:05;101868.60;;;14.07;79.97
51067;BME280;37112;45.892;-123.962;2023-07-29T09:58:26;101869.79;;;14.05;80.10
51067;BME280;37112;45.892;-123.962;2023-07-29T10:00:41;101870.15;;;14.03;80.08
51067;BME280;37112;45.892;-123.962;2023-07-29T10:02:55;101868.89;;;14.00;80.19
51067;BME280;37112;45.892;-123.962;2023-07-29T10:05:10;101870.27;;;13.98;80.24
51067;BME280;37112;45.892;-123.962;2023-07-29T10:07:24;101870.53;;;13.97;80.27
51067;BME280;37112;45.892;-123.962;2023-07-29T10:09:38;101870.11;;;13.95;80.47
51067;BME280;37112;45.892;-123.962;2023-07-29T10:11:53;101867.72;;;13.93;80.41
51067;BME280;37112;45.892;-123.962;2023-07-29T10:14:09;101869.70;;;13.90;80.51
51067;BME280;37112;45.892;-123.962;2023-07-29T10:16:25;101866.45;;;13.88;80.62
51067;BME280;37112;45.892;-123.962;2023-07-29T10:18:40;101866.91;;;13.86;80.70
51067;BME280;37112;45.892;-123.962;2023-07-29T10:20:54;101863.63;;;13.84;80.73
51067;BME280;37112;45.892;-123.962;2023-07-29T10:23:09;101866.42;;;13.82;80.82
51067;BME280;37112;45.892;-123.962;2023-07-29T10:25:25;101869.73;;;13.81;80.86
51067;BME280;37112;45.892;-123.962;2023-07-29T10:27:46;101869.30;;;13.79;80.92
51067;BME280;37112;45.892;-123.962;2023-07-29T10:30:01;101869.36;;;13.79;81.02
51067;BME280;37112;45.892;-123.962;2023-07-29T10:32:17;101868.21;;;13.77;81.09
51067;BME280;37112;45.892;-123.962;2023-07-29T10:34:34;101869.71;;;13.76;81.15
51067;BME280;37112;45.892;-123.962;2023-07-29T10:36:50;101864.44;;;13.74;81.35
51067;BME280;37112;45.892;-123.962;2023-07-29T10:39:05;101864.59;;;13.75;81.52
51067;BME280;37112;45.892;-123.962;2023-07-29T10:41:21;101862.67;;;13.74;81.66
51067;BME280;37112;45.892;-123.962;2023-07-29T10:43:37;101861.80;;;13.74;81.68
51067;BME280;37112;45.892;-123.962;2023-07-29T10:45:51;101860.55;;;13.74;81.80
51067;BME280;37112;45.892;-123.962;2023-07-29T10:50:50;101855.80;;;13.73;82.05
51067;BME280;37112;45.892;-123.962;2023-07-29T10:53:03;101858.30;;;13.73;82.16
51067;BME280;37112;45.892;-123.962;2023-07-29T10:55:31;101862.03;;;13.73;82.29
51067;BME280;37112;45.892;-123.962;2023-07-29T10:57:47;101865.00;;;13.74;82.33
51067;BME280;37112;45.892;-123.962;2023-07-29T11:00:01;101867.48;;;13.74;82.52
51067;BME280;37112;45.892;-123.962;2023-07-29T11:02:20;101863.73;;;13.74;82.56
51067;BME280;37112;45.892;-123.962;2023-07-29T11:04:45;101863.65;;;13.76;82.69
51067;BME280;37112;45.892;-123.962;2023-07-29T11:07:32;101858.89;;;13.78;82.81
51067;BME280;37112;45.892;-123.962;2023-07-29T11:10:08;101859.54;;;13.79;82.87
51067;BME280;37112;45.892;-123.962;2023-07-29T11:12:41;101861.06;;;13.80;82.92
51067;BME280;37112;45.892;-123.962;2023-07-29T11:14:56;101862.15;;;13.80;82.76
51067;BME280;37112;45.892;-123.962;2023-07-29T11:17:10;101861.92;;;13.78;82.53
51067;BME280;37112;45.892;-123.962;2023-07-29T11:19:25;101861.81;;;13.76;82.62
51067;BME280;37112;45.892;-123.962;2023-07-29T11:21:40;101861.73;;;13.75;82.63